sensor_id;sensor_type;location;lat;lon;timestamp;P1;durP1;ratioP1;P2;durP2;ratioP2
74328;SDS011;62745;51.060;13.786;2023-03-07T00:01:55;19.10;;;8.57;;
74328;SDS011;62745;51.060;13.786;2023-03-07T00:04:20;19.42;;;8.93;;
74328;SDS011;62745;51.060;13.786;2023-03-07T00:06:46;17.73;;;7.63;;
74328;SDS011;62745;51.060;13.786;2023-03-07T00:09:11;21.37;;;8.63;;
74328;SDS011;62745;51.060;13.786;2023-03-07T00:11:36;18.73;;;9.20;;
74328;SDS011;62745;51.060;13.786;2023-03-07T00:14:04;18.23;;;8.77;;
74328;SDS011;62745;51.060;13.786;2023-03-07T00:16:30;18.40;;;8.75;;
74328;SDS011;62745;51.060;13.786;2023-03-07T00:18:55;19.57;;;9.17;;
74328;SDS011;62745;51.060;13.786;2023-03-07T00:21:21;19.03;;;8.67;;
74328;SDS011;62745;51.060;13.786;2023-03-07T00:23:47;20.33;;;9.18;;
74328;SDS011;62745;51.060;13.786;2023-03-07T00:26:16;19.75;;;8.90;;
74328;SDS011;62745;51.060;13.786;2023-03-07T00:28:44;20.38;;;8.95;;
74328;SDS011;62745;51.060;13.786;2023-03-07T00:31:11;19.92;;;9.15;;
74328;SDS011;62745;51.060;13.786;2023-03-07T00:33:36;19.95;;;8.77;;
74328;SDS011;62745;51.060;13.786;2023-03-07T00:36:04;19.85;;;9.18;;
74328;SDS011;62745;51.060;13.786;2023-03-07T00:38:31;20.50;;;9.00;;
74328;SDS011;62745;51.060;13.786;2023-03-07T00:40:57;19.42;;;9.02;;
74328;SDS011;62745;51.060;13.786;2023-03-07T00:43:22;22.40;;;9.23;;
74328;SDS011;62745;51.060;13.786;2023-03-07T00:45:48;20.40;;;9.73;;
74328;SDS011;62745;51.060;13.786;2023-03-07T00:48:13;22.60;;;9.57;;
74328;SDS011;62745;51.060;13.786;2023-03-07T00:50:38;20.10;;;9.20;;
74328;SDS011;62745;51.060;13.786;2023-03-07T00:53:03;17.93;;;8.53;;
74328;SDS011;62745;51.060;13.786;2023-03-07T00:55:29;17.90;;;7.37;;
74328;SDS011;62745;51.060;13.786;2023-03-07T00:57:54;18.30;;;9.10;;
74328;SDS011;62745;51.060;13.786;2023-03-07T01:00:19;18.47;;;8.33;;
74328;SDS011;62745;51.060;13.786;2023-03-07T01:02:45;19.42;;;8.68;;
74328;SDS011;62745;51.060;13.786;2023-03-07T01:05:10;16.90;;;8.32;;
74328;SDS011;62745;51.060;13.786;2023-03-07T01:07:35;18.50;;;8.77;;
74328;SDS011;62745;51.060;13.786;2023-03-07T01:10:01;22.33;;;9.20;;
74328;SDS011;62745;51.060;13.786;2023-03-07T01:12:26;18.73;;;7.87;;
74328;SDS011;62745;51.060;13.786;2023-03-07T01:14:51;18.25;;;8.82;;
74328;SDS011;62745;51.060;13.786;2023-03-07T01:17:16;18.20;;;8.57;;
74328;SDS011;62745;51.060;13.786;2023-03-07T01:19:42;18.67;;;8.40;;
74328;SDS011;62745;51.060;13.786;2023-03-07T01:22:07;21.17;;;8.90;;
74328;SDS011;62745;51.060;13.786;2023-03-07T01:24:32;15.87;;;7.87;;
74328;SDS011;62745;51.060;13.786;2023-03-07T01:26:57;19.17;;;8.83;;
74328;SDS011;62745;51.060;13.786;2023-03-07T01:29:23;19.13;;;8.30;;
74328;SDS011;62745;51.060;13.786;2023-03-07T01:31:48;17.30;;;8.77;;
74328;SDS011;62745;51.060;13.786;2023-03-07T01:34:13;19.63;;;8.57;;
74328;SDS011;62745;51.060;13.786;2023-03-07T01:36:38;18.77;;;8.73;;
74328;SDS011;62745;51.060;13.786;2023-03-07T01:39:14;19.23;;;8.23;;
74328;SDS011;62745;51.060;13.786;2023-03-07T01:41:40;18.92;;;8.25;;
74328;SDS011;62745;51.060;13.786;2023-03-07T01:44:28;18.55;;;7.85;;
74328;SDS011;62745;51.060;13.786;2023-03-07T01:46:58;17.00;;;8.30;;
74328;SDS011;62745;51.060;13.786;2023-03-07T01:49:25;17.67;;;8.30;;
74328;SDS011;62745;51.060;13.786;2023-03-07T01:52:04;19.45;;;8.00;;
74328;SDS011;62745;51.060;13.786;2023-03-07T01:54:37;15.80;;;7.53;;
74328;SDS011;62745;51.060;13.786;2023-03-07T01:59:33;16.13;;;6.78;;
74328;SDS011;62745;51.060;13.786;2023-03-07T02:02:05;17.73;;;6.70;;
74328;SDS011;62745;51.060;13.786;2023-03-07T02:04:35;19.40;;;8.02;;
74328;SDS011;62745;51.060;13.786;2023-03-07T02:07:08;19.40;;;8.55;;
74328;SDS011;62745;51.060;13.786;2023-03-07T02:09:34;18.33;;;8.07;;
74328;SDS011;62745;51.060;13.786;2023-03-07T02:12:01;19.27;;;8.68;;
74328;SDS011;62745;51.060;13.786;2023-03-07T02:14:26;19.38;;;8.57;;
74328;SDS011;62745;51.060;13.786;2023-03-07T02:16:52;18.47;;;8.17;;
74328;SDS011;62745;51.060;13.786;2023-03-07T02:19:27;17.83;;;7.90;;
74328;SDS011;62745;51.060;13.786;2023-03-07T02:22:09;18.58;;;8.52;;
74328;SDS011;62745;51.060;13.786;2023-03-07T02:24:57;19.25;;;8.30;;
74328;SDS011;62745;51.060;13.786;2023-03-07T02:27:24;19.55;;;8.30;;
74328;SDS011;62745;51.060;13.786;2023-03-07T02:29:53;18.48;;;8.90;;
74328;SDS011;62745;51.060;13.786;2023-03-07T02:32:19;18.40;;;7.63;;
74328;SDS011;62745;51.060;13.786;2023-03-07T02:34:44;19.42;;;9.05;;
74328;SDS011;62745;51.060;13.786;2023-03-07T02:37:11;19.50;;;8.30;;
74328;SDS011;62745;51.060;13.786;2023-03-07T02:42:07;19.83;;;8.32;;
74328;SDS011;62745;51.060;13.786;2023-03-07T02:44:37;17.30;;;7.53;;
74328;SDS011;62745;51.060;13.786;2023-03-07T02:47:02;19.37;;;8.67;;
74328;SDS011;62745;51.060;13.786;2023-03-07T02:49:32;18.00;;;8.13;;
74328;SDS011;62745;51.060;13.786;2023-03-07T02:51:58;17.48;;;8.02;;
74328;SDS011;62745;51.060;13.786;2023-03-07T02:54:24;17.90;;;8.18;;
74328;SDS011;62745;51.060;13.786;2023-03-07T02:56:50;18.30;;;8.75;;
74328;SDS011;62745;51.060;13.786;2023-03-07T02:59:15;19.10;;;8.33;;
74328;SDS011;62745;51.060;13.786;2023-03-07T03:01:40;19.60;;;8.43;;
74328;SDS011;62745;51.060;13.786;2023-03-07T03:04:05;18.67;;;8.63;;
74328;SDS011;62745;51.060;13.786;2023-03-07T03:06:31;16.40;;;7.80;;
74328;SDS011;62745;51.060;13.786;2023-03-07T03:08:56;17.00;;;8.10;;
74328;SDS011;62745;51.060;13.786;2023-03-07T03:11:21;18.07;;;8.77;;
74328;SDS011;62745;51.060;13.786;2023-03-07T03:13:46;17.23;;;7.68;;
74328;SDS011;62745;51.060;13.786;2023-03-07T03:16:12;20.97;;;8.43;;
74328;SDS011;62745;51.060;13.786;2023-03-07T03:18:37;18.70;;;9.20;;
74328;SDS011;62745;51.060;13.786;2023-03-07T03:21:06;19.25;;;8.52;;
74328;SDS011;62745;51.060;13.786;2023-03-07T03:23:35;17.80;;;8.63;;
74328;SDS011;62745;51.060;13.786;2023-03-07T03:26:02;20.83;;;8.82;;
74328;SDS011;62745;51.060;13.786;2023-03-07T03:28:32;19.63;;;8.63;;
74328;SDS011;62745;51.060;13.786;2023-03-07T03:30:59;19.35;;;9.25;;
74328;SDS011;62745;51.060;13.786;2023-03-07T03:33:26;19.75;;;8.32;;
74328;SDS011;62745;51.060;13.786;2023-03-07T03:35:53;17.45;;;7.50;;
74328;SDS011;62745;51.060;13.786;2023-03-07T03:38:19;20.27;;;8.60;;
74328;SDS011;62745;51.060;13.786;2023-03-07T03:40:44;17.37;;;8.23;;
74328;SDS011;62745;51.060;13.786;2023-03-07T03:43:09;18.80;;;8.67;;
74328;SDS011;62745;51.060;13.786;2023-03-07T03:45:35;19.10;;;8.65;;
74328;SDS011;62745;51.060;13.786;2023-03-07T03:48:00;20.93;;;8.17;;
74328;SDS011;62745;51.060;13.786;2023-03-07T03:50:25;17.97;;;8.93;;
74328;SDS011;62745;51.060;13.786;2023-03-07T03:52:51;18.90;;;8.23;;
74328;SDS011;62745;51.060;13.786;2023-03-07T03:55:16;17.57;;;8.00;;
74328;SDS011;62745;51.060;13.786;2023-03-07T03:57:42;18.65;;;8.50;;
74328;SDS011;62745;51.060;13.786;2023-03-07T04:00:07;19.10;;;7.97;;
74328;SDS011;62745;51.060;13.786;2023-03-07T04:02:33;18.42;;;8.32;;
74328;SDS011;62745;51.060;13.786;2023-03-07T04:04:58;14.43;;;6.93;;
74328;SDS011;62745;51.060;13.786;2023-03-07T04:07:23;20.17;;;9.53;;
74328;SDS011;62745;51.060;13.786;2023-03-07T04:09:52;19.45;;;7.57;;
74328;SDS011;62745;51.060;13.786;2023-03-07T04:12:18;16.37;;;8.00;;
74328;SDS011;62745;51.060;13.786;2023-03-07T04:14:43;14.37;;;6.93;;
74328;SDS011;62745;51.060;13.786;2023-03-07T04:17:08;16.67;;;6.97;;
74328;SDS011;62745;51.060;13.786;2023-03-07T04:19:33;15.63;;;6.93;;
74328;SDS011;62745;51.060;13.786;2023-03-07T04:21:59;18.20;;;8.47;;
74328;SDS011;62745;51.060;13.786;2023-03-07T04:24:24;18.30;;;8.10;;
74328;SDS011;62745;51.060;13.786;2023-03-07T04:26:49;18.02;;;7.60;;
74328;SDS011;62745;51.060;13.786;2023-03-07T04:29:15;18.03;;;7.80;;
74328;SDS011;62745;51.060;13.786;2023-03-07T04:31:41;13.93;;;7.35;;
74328;SDS011;62745;51.060;13.786;2023-03-07T04:34:06;17.43;;;6.80;;
74328;SDS011;62745;51.060;13.786;2023-03-07T04:36:31;16.60;;;7.87;;
74328;SDS011;62745;51.060;13.786;2023-03-07T04:38:56;15.60;;;7.23;;
74328;SDS011;62745;51.060;13.786;2023-03-07T04:41:23;16.17;;;7.47;;
74328;SDS011;62745;51.060;13.786;2023-03-07T04:43:51;15.38;;;6.72;;
74328;SDS011;62745;51.060;13.786;2023-03-07T04:46:17;15.15;;;7.13;;
74328;SDS011;62745;51.060;13.786;2023-03-07T04:48:43;18.77;;;6.93;;
74328;SDS011;62745;51.060;13.786;2023-03-07T04:51:09;17.25;;;7.85;;
74328;SDS011;62745;51.060;13.786;2023-03-07T04:53:35;16.63;;;7.20;;
74328;SDS011;62745;51.060;13.786;2023-03-07T04:56:00;15.57;;;7.53;;
74328;SDS011;62745;51.060;13.786;2023-03-07T04:58:28;17.25;;;7.55;;
74328;SDS011;62745;51.060;13.786;2023-03-07T05:00:54;19.15;;;8.32;;
74328;SDS011;62745;51.060;13.786;2023-03-07T05:03:21;18.00;;;8.43;;
74328;SDS011;62745;51.060;13.786;2023-03-07T05:05:47;16.85;;;8.18;;
74328;SDS011;62745;51.060;13.786;2023-03-07T05:08:12;17.13;;;8.27;;
74328;SDS011;62745;51.060;13.786;2023-03-07T05:10:38;16.67;;;7.82;;
74328;SDS011;62745;51.060;13.786;2023-03-07T05:13:03;19.00;;;7.97;;
74328;SDS011;62745;51.060;13.786;2023-03-07T05:15:29;14.60;;;7.57;;
74328;SDS011;62745;51.060;13.786;2023-03-07T05:17:54;15.73;;;7.28;;
74328;SDS011;62745;51.060;13.786;2023-03-07T05:20:19;17.13;;;7.55;;
74328;SDS011;62745;51.060;13.786;2023-03-07T05:22:45;18.60;;;8.52;;
74328;SDS011;62745;51.060;13.786;2023-03-07T05:25:11;14.27;;;7.30;;
74328;SDS011;62745;51.060;13.786;2023-03-07T05:27:37;15.52;;;7.78;;
74328;SDS011;62745;51.060;13.786;2023-03-07T05:30:02;17.77;;;8.18;;
74328;SDS011;62745;51.060;13.786;2023-03-07T05:32:29;17.88;;;8.80;;
74328;SDS011;62745;51.060;13.786;2023-03-07T05:34:55;14.98;;;6.55;;
74328;SDS011;62745;51.060;13.786;2023-03-07T05:37:20;12.80;;;6.17;;
74328;SDS011;62745;51.060;13.786;2023-03-07T05:39:45;15.30;;;6.90;;
74328;SDS011;62745;51.060;13.786;2023-03-07T05:42:11;16.33;;;7.60;;
74328;SDS011;62745;51.060;13.786;2023-03-07T05:44:37;16.58;;;8.20;;
74328;SDS011;62745;51.060;13.786;2023-03-07T05:47:02;16.23;;;7.53;;
74328;SDS011;62745;51.060;13.786;2023-03-07T05:49:28;18.58;;;7.97;;
74328;SDS011;62745;51.060;13.786;2023-03-07T05:51:53;15.80;;;7.20;;
74328;SDS011;62745;51.060;13.786;2023-03-07T05:54:18;15.33;;;7.70;;
74328;SDS011;62745;51.060;13.786;2023-03-07T05:56:44;17.55;;;7.65;;
74328;SDS011;62745;51.060;13.786;2023-03-07T05:59:09;13.27;;;6.40;;
74328;SDS011;62745;51.060;13.786;2023-03-07T06:01:36;14.50;;;6.90;;
74328;SDS011;62745;51.060;13.786;2023-03-07T06:04:02;17.75;;;7.82;;
74328;SDS011;62745;51.060;13.786;2023-03-07T06:06:28;16.40;;;7.53;;
74328;SDS011;62745;51.060;13.786;2023-03-07T06:08:53;16.13;;;7.53;;
74328;SDS011;62745;51.060;13.786;2023-03-07T06:11:18;14.93;;;6.55;;
74328;SDS011;62745;51.060;13.786;2023-03-07T06:13:44;18.05;;;7.88;;
74328;SDS011;62745;51.060;13.786;2023-03-07T06:16:09;14.43;;;6.80;;
74328;SDS011;62745;51.060;13.786;2023-03-07T06:18:34;16.67;;;8.05;;
74328;SDS011;62745;51.060;13.786;2023-03-07T06:21:00;14.37;;;7.37;;
74328;SDS011;62745;51.060;13.786;2023-03-07T06:23:28;14.05;;;7.22;;
74328;SDS011;62745;51.060;13.786;2023-03-07T06:25:55;15.02;;;6.97;;
74328;SDS011;62745;51.060;13.786;2023-03-07T06:28:21;11.90;;;6.07;;
74328;SDS011;62745;51.060;13.786;2023-03-07T06:30:47;15.10;;;6.97;;
74328;SDS011;62745;51.060;13.786;2023-03-07T06:33:13;13.48;;;6.20;;
74328;SDS011;62745;51.060;13.786;2023-03-07T06:35:38;12.38;;;6.28;;
74328;SDS011;62745;51.060;13.786;2023-03-07T06:38:07;13.68;;;5.55;;
74328;SDS011;62745;51.060;13.786;2023-03-07T06:40:34;10.55;;;5.43;;
74328;SDS011;62745;51.060;13.786;2023-03-07T06:42:59;14.37;;;6.57;;
74328;SDS011;62745;51.060;13.786;2023-03-07T06:45:24;11.85;;;5.68;;
74328;SDS011;62745;51.060;13.786;2023-03-07T06:47:49;11.43;;;5.87;;
74328;SDS011;62745;51.060;13.786;2023-03-07T06:50:15;14.18;;;6.57;;
74328;SDS011;62745;51.060;13.786;2023-03-07T06:52:41;11.05;;;5.18;;
74328;SDS011;62745;51.060;13.786;2023-03-07T06:55:07;11.93;;;5.80;;
74328;SDS011;62745;51.060;13.786;2023-03-07T06:57:33;8.88;;;4.13;;
74328;SDS011;62745;51.060;13.786;2023-03-07T06:59:59;12.33;;;5.57;;
74328;SDS011;62745;51.060;13.786;2023-03-07T07:02:25;13.07;;;5.82;;
74328;SDS011;62745;51.060;13.786;2023-03-07T07:04:50;12.83;;;6.30;;
74328;SDS011;62745;51.060;13.786;2023-03-07T07:07:15;11.43;;;5.20;;
74328;SDS011;62745;51.060;13.786;2023-03-07T07:09:41;11.40;;;5.22;;
74328;SDS011;62745;51.060;13.786;2023-03-07T07:12:06;12.40;;;5.10;;
74328;SDS011;62745;51.060;13.786;2023-03-07T07:14:31;9.40;;;4.15;;
74328;SDS011;62745;51.060;13.786;2023-03-07T07:16:58;11.93;;;5.75;;
74328;SDS011;62745;51.060;13.786;2023-03-07T07:19:24;8.40;;;4.10;;
74328;SDS011;62745;51.060;13.786;2023-03-07T07:21:50;11.80;;;4.88;;
74328;SDS011;62745;51.060;13.786;2023-03-07T07:24:15;11.27;;;5.70;;
74328;SDS011;62745;51.060;13.786;2023-03-07T07:26:41;11.03;;;5.53;;
74328;SDS011;62745;51.060;13.786;2023-03-07T07:29:06;10.80;;;4.70;;
74328;SDS011;62745;51.060;13.786;2023-03-07T07:31:31;17.33;;;5.43;;
74328;SDS011;62745;51.060;13.786;2023-03-07T07:33:57;12.05;;;6.43;;
74328;SDS011;62745;51.060;13.786;2023-03-07T07:36:22;13.50;;;5.45;;
74328;SDS011;62745;51.060;13.786;2023-03-07T07:38:48;10.38;;;4.93;;
74328;SDS011;62745;51.060;13.786;2023-03-07T07:41:13;10.55;;;4.82;;
74328;SDS011;62745;51.060;13.786;2023-03-07T07:43:39;11.68;;;5.05;;
74328;SDS011;62745;51.060;13.786;2023-03-07T07:46:05;10.45;;;4.95;;
74328;SDS011;62745;51.060;13.786;2023-03-07T07:48:31;9.95;;;4.43;;
74328;SDS011;62745;51.060;13.786;2023-03-07T07:50:59;11.23;;;5.10;;
74328;SDS011;62745;51.060;13.786;2023-03-07T07:53:26;10.48;;;5.05;;
74328;SDS011;62745;51.060;13.786;2023-03-07T07:55:51;9.75;;;4.85;;
74328;SDS011;62745;51.060;13.786;2023-03-07T07:58:16;10.17;;;4.43;;
74328;SDS011;62745;51.060;13.786;2023-03-07T08:00:42;9.03;;;4.10;;
74328;SDS011;62745;51.060;13.786;2023-03-07T08:03:07;10.37;;;3.90;;
74328;SDS011;62745;51.060;13.786;2023-03-07T08:05:32;11.10;;;4.47;;
74328;SDS011;62745;51.060;13.786;2023-03-07T08:07:58;9.73;;;4.40;;
74328;SDS011;62745;51.060;13.786;2023-03-07T08:10:23;9.53;;;4.07;;
74328;SDS011;62745;51.060;13.786;2023-03-07T08:12:48;10.18;;;4.78;;
74328;SDS011;62745;51.060;13.786;2023-03-07T08:15:15;8.40;;;3.65;;
74328;SDS011;62745;51.060;13.786;2023-03-07T08:17:41;8.90;;;4.50;;
74328;SDS011;62745;51.060;13.786;2023-03-07T08:20:07;9.80;;;4.57;;
74328;SDS011;62745;51.060;13.786;2023-03-07T08:22:34;9.25;;;4.55;;
74328;SDS011;62745;51.060;13.786;2023-03-07T08:25:00;8.55;;;4.55;;
74328;SDS011;62745;51.060;13.786;2023-03-07T08:27:26;7.97;;;4.20;;
74328;SDS011;62745;51.060;13.786;2023-03-07T08:29:52;8.95;;;4.40;;
74328;SDS011;62745;51.060;13.786;2023-03-07T08:32:17;8.13;;;3.97;;
74328;SDS011;62745;51.060;13.786;2023-03-07T08:34:42;8.40;;;3.97;;
74328;SDS011;62745;51.060;13.786;2023-03-07T08:37:07;6.57;;;3.17;;
74328;SDS011;62745;51.060;13.786;2023-03-07T08:39:33;7.93;;;3.83;;
74328;SDS011;62745;51.060;13.786;2023-03-07T08:41:58;8.80;;;4.30;;
74328;SDS011;62745;51.060;13.786;2023-03-07T08:44:24;8.05;;;4.22;;
74328;SDS011;62745;51.060;13.786;2023-03-07T08:46:50;8.40;;;4.07;;
74328;SDS011;62745;51.060;13.786;2023-03-07T08:49:15;7.03;;;3.67;;
74328;SDS011;62745;51.060;13.786;2023-03-07T08:51:40;7.80;;;3.50;;
74328;SDS011;62745;51.060;13.786;2023-03-07T08:54:05;8.05;;;3.47;;
74328;SDS011;62745;51.060;13.786;2023-03-07T08:56:31;9.83;;;3.60;;
74328;SDS011;62745;51.060;13.786;2023-03-07T08:58:56;8.93;;;4.07;;
74328;SDS011;62745;51.060;13.786;2023-03-07T09:01:21;6.67;;;3.13;;
74328;SDS011;62745;51.060;13.786;2023-03-07T09:03:46;7.57;;;3.47;;
74328;SDS011;62745;51.060;13.786;2023-03-07T09:06:16;7.23;;;3.57;;
74328;SDS011;62745;51.060;13.786;2023-03-07T09:08:43;7.20;;;3.67;;
74328;SDS011;62745;51.060;13.786;2023-03-07T09:11:08;6.97;;;3.67;;
74328;SDS011;62745;51.060;13.786;2023-03-07T09:13:34;7.10;;;3.28;;
74328;SDS011;62745;51.060;13.786;2023-03-07T09:15:59;6.45;;;3.33;;
74328;SDS011;62745;51.060;13.786;2023-03-07T09:18:28;7.65;;;3.28;;
74328;SDS011;62745;51.060;13.786;2023-03-07T09:20:53;7.23;;;3.20;;
74328;SDS011;62745;51.060;13.786;2023-03-07T09:23:19;6.95;;;3.60;;
74328;SDS011;62745;51.060;13.786;2023-03-07T09:25:44;6.87;;;3.13;;
74328;SDS011;62745;51.060;13.786;2023-03-07T09:28:09;6.57;;;3.17;;
74328;SDS011;62745;51.060;13.786;2023-03-07T09:30:35;4.50;;;2.15;;
74328;SDS011;62745;51.060;13.786;2023-03-07T09:33:01;6.60;;;3.10;;
74328;SDS011;62745;51.060;13.786;2023-03-07T09:35:26;6.30;;;3.10;;
74328;SDS011;62745;51.060;13.786;2023-03-07T09:37:52;6.47;;;3.20;;
74328;SDS011;62745;51.060;13.786;2023-03-07T09:40:18;5.97;;;2.83;;
74328;SDS011;62745;51.060;13.786;2023-03-07T09:42:55;5.82;;;2.63;;
74328;SDS011;62745;51.060;13.786;2023-03-07T09:45:29;6.70;;;3.55;;
74328;SDS011;62745;51.060;13.786;2023-03-07T09:50:44;6.43;;;3.20;;
74328;SDS011;62745;51.060;13.786;2023-03-07T09:54:03;6.57;;;3.20;;
74328;SDS011;62745;51.060;13.786;2023-03-07T09:56:12;6.57;;;3.50;;
74328;SDS011;62745;51.060;13.786;2023-03-07T09:58:43;6.53;;;3.45;;
74328;SDS011;62745;51.060;13.786;2023-03-07T10:01:15;7.55;;;3.15;;
74328;SDS011;62745;51.060;13.786;2023-03-07T10:03:52;7.90;;;3.15;;
74328;SDS011;62745;51.060;13.786;2023-03-07T10:06:28;7.65;;;3.70;;
74328;SDS011;62745;51.060;13.786;2023-03-07T10:08:59;7.05;;;3.90;;
74328;SDS011;62745;51.060;13.786;2023-03-07T10:16:54;6.83;;;3.57;;
74328;SDS011;62745;51.060;13.786;2023-03-07T10:19:47;5.68;;;3.10;;
74328;SDS011;62745;51.060;13.786;2023-03-07T10:27:29;7.60;;;3.07;;
74328;SDS011;62745;51.060;13.786;2023-03-07T10:29:55;6.90;;;3.80;;
74328;SDS011;62745;51.060;13.786;2023-03-07T10:32:39;8.65;;;3.83;;
74328;SDS011;62745;51.060;13.786;2023-03-07T10:42:49;8.80;;;3.78;;
74328;SDS011;62745;51.060;13.786;2023-03-07T10:45:14;11.43;;;3.97;;
74328;SDS011;62745;51.060;13.786;2023-03-07T10:47:40;6.78;;;3.55;;
74328;SDS011;62745;51.060;13.786;2023-03-07T10:52:54;6.82;;;3.70;;
74328;SDS011;62745;51.060;13.786;2023-03-07T10:55:29;8.65;;;4.35;;
74328;SDS011;62745;51.060;13.786;2023-03-07T11:01:13;8.40;;;3.60;;
74328;SDS011;62745;51.060;13.786;2023-03-07T11:03:40;10.80;;;4.25;;
74328;SDS011;62745;51.060;13.786;2023-03-07T11:06:23;9.05;;;4.38;;
74328;SDS011;62745;51.060;13.786;2023-03-07T11:11:23;5.40;;;2.90;;
74328;SDS011;62745;51.060;13.786;2023-03-07T11:14:05;6.05;;;3.20;;
74328;SDS011;62745;51.060;13.786;2023-03-07T11:16:41;6.63;;;3.50;;
74328;SDS011;62745;51.060;13.786;2023-03-07T11:22:15;7.93;;;3.70;;
74328;SDS011;62745;51.060;13.786;2023-03-07T11:27:22;7.22;;;3.50;;
74328;SDS011;62745;51.060;13.786;2023-03-07T11:30:05;6.38;;;3.53;;
74328;SDS011;62745;51.060;13.786;2023-03-07T11:32:44;6.70;;;3.67;;
74328;SDS011;62745;51.060;13.786;2023-03-07T11:35:18;7.13;;;3.63;;
74328;SDS011;62745;51.060;13.786;2023-03-07T11:37:50;9.13;;;4.30;;
74328;SDS011;62745;51.060;13.786;2023-03-07T11:40:26;5.38;;;2.25;;
74328;SDS011;62745;51.060;13.786;2023-03-07T11:54:48;8.23;;;4.43;;
74328;SDS011;62745;51.060;13.786;2023-03-07T12:05:18;6.63;;;3.30;;
74328;SDS011;62745;51.060;13.786;2023-03-07T12:07:59;7.13;;;3.47;;
74328;SDS011;62745;51.060;13.786;2023-03-07T12:10:43;7.57;;;3.80;;
74328;SDS011;62745;51.060;13.786;2023-03-07T12:22:22;5.82;;;3.00;;
74328;SDS011;62745;51.060;13.786;2023-03-07T12:24:59;9.80;;;3.75;;
74328;SDS011;62745;51.060;13.786;2023-03-07T12:39:17;6.45;;;3.17;;
74328;SDS011;62745;51.060;13.786;2023-03-07T12:42:09;7.32;;;3.08;;
74328;SDS011;62745;51.060;13.786;2023-03-07T12:44:57;7.28;;;3.45;;
74328;SDS011;62745;51.060;13.786;2023-03-07T12:50:26;8.95;;;3.72;;
74328;SDS011;62745;51.060;13.786;2023-03-07T12:53:04;7.15;;;3.95;;
74328;SDS011;62745;51.060;13.786;2023-03-07T12:55:42;7.70;;;3.53;;
74328;SDS011;62745;51.060;13.786;2023-03-07T13:01:05;8.55;;;4.15;;
74328;SDS011;62745;51.060;13.786;2023-03-07T13:03:44;5.90;;;3.25;;
74328;SDS011;62745;51.060;13.786;2023-03-07T13:06:16;6.65;;;3.05;;
74328;SDS011;62745;51.060;13.786;2023-03-07T13:08:48;7.70;;;4.18;;
74328;SDS011;62745;51.060;13.786;2023-03-07T13:11:18;6.68;;;3.17;;
74328;SDS011;62745;51.060;13.786;2023-03-07T13:13:48;6.97;;;3.55;;
74328;SDS011;62745;51.060;13.786;2023-03-07T13:22:03;7.03;;;3.83;;
74328;SDS011;62745;51.060;13.786;2023-03-07T13:24:50;7.35;;;3.42;;
74328;SDS011;62745;51.060;13.786;2023-03-07T13:27:27;7.88;;;3.38;;
74328;SDS011;62745;51.060;13.786;2023-03-07T13:45:56;6.72;;;3.58;;
74328;SDS011;62745;51.060;13.786;2023-03-07T13:53:38;8.43;;;4.27;;
74328;SDS011;62745;51.060;13.786;2023-03-07T14:06:41;6.68;;;3.33;;
74328;SDS011;62745;51.060;13.786;2023-03-07T14:09:13;8.43;;;3.88;;
74328;SDS011;62745;51.060;13.786;2023-03-07T14:12:03;11.05;;;3.28;;
74328;SDS011;62745;51.060;13.786;2023-03-07T14:20:08;6.55;;;3.45;;
74328;SDS011;62745;51.060;13.786;2023-03-07T14:22:47;6.30;;;3.45;;
74328;SDS011;62745;51.060;13.786;2023-03-07T14:25:30;6.20;;;3.00;;
74328;SDS011;62745;51.060;13.786;2023-03-07T14:27:59;6.03;;;3.30;;
74328;SDS011;62745;51.060;13.786;2023-03-07T14:30:27;6.88;;;3.10;;
74328;SDS011;62745;51.060;13.786;2023-03-07T14:32:57;7.00;;;3.47;;
74328;SDS011;62745;51.060;13.786;2023-03-07T14:35:37;8.20;;;3.65;;
74328;SDS011;62745;51.060;13.786;2023-03-07T14:38:06;6.43;;;2.83;;
74328;SDS011;62745;51.060;13.786;2023-03-07T14:41:01;6.85;;;3.20;;
74328;SDS011;62745;51.060;13.786;2023-03-07T14:46:30;7.43;;;3.28;;
74328;SDS011;62745;51.060;13.786;2023-03-07T14:49:23;8.30;;;4.10;;
74328;SDS011;62745;51.060;13.786;2023-03-07T14:52:07;6.57;;;3.60;;
74328;SDS011;62745;51.060;13.786;2023-03-07T14:54:37;6.55;;;3.65;;
74328;SDS011;62745;51.060;13.786;2023-03-07T14:57:02;7.45;;;3.35;;
74328;SDS011;62745;51.060;13.786;2023-03-07T14:59:28;7.07;;;3.78;;
74328;SDS011;62745;51.060;13.786;2023-03-07T15:01:53;8.07;;;3.80;;
74328;SDS011;62745;51.060;13.786;2023-03-07T15:06:51;8.60;;;3.10;;
74328;SDS011;62745;51.060;13.786;2023-03-07T15:09:18;6.63;;;3.42;;
74328;SDS011;62745;51.060;13.786;2023-03-07T15:11:44;8.90;;;3.65;;
74328;SDS011;62745;51.060;13.786;2023-03-07T15:14:21;6.15;;;3.03;;
74328;SDS011;62745;51.060;13.786;2023-03-07T15:17:01;6.47;;;3.60;;
74328;SDS011;62745;51.060;13.786;2023-03-07T15:19:35;7.10;;;3.38;;
74328;SDS011;62745;51.060;13.786;2023-03-07T15:22:06;7.10;;;3.17;;
74328;SDS011;62745;51.060;13.786;2023-03-07T15:24:37;6.55;;;3.53;;
74328;SDS011;62745;51.060;13.786;2023-03-07T15:27:08;6.00;;;2.95;;
74328;SDS011;62745;51.060;13.786;2023-03-07T15:29:38;6.55;;;3.13;;
74328;SDS011;62745;51.060;13.786;2023-03-07T15:37:34;4.90;;;2.67;;
74328;SDS011;62745;51.060;13.786;2023-03-07T15:40:02;5.57;;;2.88;;
74328;SDS011;62745;51.060;13.786;2023-03-07T15:42:49;5.22;;;2.90;;
74328;SDS011;62745;51.060;13.786;2023-03-07T15:45:39;5.53;;;2.83;;
74328;SDS011;62745;51.060;13.786;2023-03-07T15:50:53;5.22;;;2.63;;
74328;SDS011;62745;51.060;13.786;2023-03-07T15:53:22;4.70;;;2.40;;
74328;SDS011;62745;51.060;13.786;2023-03-07T15:55:55;5.57;;;2.83;;
74328;SDS011;62745;51.060;13.786;2023-03-07T15:58:22;5.25;;;2.60;;
74328;SDS011;62745;51.060;13.786;2023-03-07T16:00:54;5.03;;;2.60;;
74328;SDS011;62745;51.060;13.786;2023-03-07T16:03:46;7.07;;;3.20;;
74328;SDS011;62745;51.060;13.786;2023-03-07T16:06:41;5.72;;;2.80;;
74328;SDS011;62745;51.060;13.786;2023-03-07T16:09:14;7.68;;;3.15;;
74328;SDS011;62745;51.060;13.786;2023-03-07T16:11:41;6.00;;;2.80;;
74328;SDS011;62745;51.060;13.786;2023-03-07T16:14:13;7.20;;;3.28;;
74328;SDS011;62745;51.060;13.786;2023-03-07T16:16:47;5.38;;;2.60;;
74328;SDS011;62745;51.060;13.786;2023-03-07T16:19:13;5.80;;;2.40;;
74328;SDS011;62745;51.060;13.786;2023-03-07T16:21:38;5.17;;;3.00;;
74328;SDS011;62745;51.060;13.786;2023-03-07T16:24:04;7.38;;;2.53;;
74328;SDS011;62745;51.060;13.786;2023-03-07T16:26:29;6.15;;;2.97;;
74328;SDS011;62745;51.060;13.786;2023-03-07T16:28:55;5.57;;;2.40;;
74328;SDS011;62745;51.060;13.786;2023-03-07T16:31:23;4.10;;;2.08;;
74328;SDS011;62745;51.060;13.786;2023-03-07T16:33:49;5.77;;;2.57;;
74328;SDS011;62745;51.060;13.786;2023-03-07T16:36:14;7.63;;;3.47;;
74328;SDS011;62745;51.060;13.786;2023-03-07T16:38:40;5.60;;;2.47;;
74328;SDS011;62745;51.060;13.786;2023-03-07T16:41:14;6.95;;;3.08;;
74328;SDS011;62745;51.060;13.786;2023-03-07T16:43:41;7.20;;;2.38;;
74328;SDS011;62745;51.060;13.786;2023-03-07T16:46:12;6.00;;;2.95;;
74328;SDS011;62745;51.060;13.786;2023-03-07T16:48:40;6.47;;;2.70;;
74328;SDS011;62745;51.060;13.786;2023-03-07T16:51:08;5.63;;;2.70;;
74328;SDS011;62745;51.060;13.786;2023-03-07T16:53:41;6.68;;;3.15;;
74328;SDS011;62745;51.060;13.786;2023-03-07T16:56:14;6.95;;;3.50;;
74328;SDS011;62745;51.060;13.786;2023-03-07T16:58:53;7.63;;;3.17;;
74328;SDS011;62745;51.060;13.786;2023-03-07T17:01:19;5.10;;;2.83;;